New Orleans, Louisiana
Traffic Map
Current Weather Conditions
New Orleans, Louisiana
Clear
Clear
11°
Feels Like: 11°
Wind Chill: 11° Ceiling: Unl
Heat Index: 11° Visibility: 10mi
Dew Point: -4° Wind: 17mph
Humidity: 36% Direction: 20° (NNE)
Pressure: 30.48in Gusts: 0mph
Raw Report DataKNEW 070353Z AUTO 02015KT 10SM CLR 11/M04 A3048 RMK AO2 SLP314 T01061039 TSNO
Traffic Incident Summary
Active as of:
Severity:
Category:
InformationThere was an issue retrieving the traffic information for this location. Please try a different location or try again shortly.
Advertisements
Track Severe Weather on mobile